HESN 061000Z 03006KT CAVOK 38/09 Q1011 NOSIG
From batch tds/metars/production/2022/10/6/h10_m24_metars.cache.csv.gz
Observed at (about 1 hour ago)
Identifier HESN
HESN 060900Z 02006KT CAVOK 36/09 Q1011 NOSIG
From batch tds/metars/production/2022/10/6/h09_m29_metars.cache.csv.gz
Observed at (about 2 hours ago)
Identifier HESN
HESN 060600Z 01005KT CAVOK 31/10 Q1011 NOSIG
From batch tds/metars/production/2022/10/6/h06_m20_metars.cache.csv.gz
Observed at (about 5 hours ago)
Identifier HESN
HESN 060500Z 36005KT CAVOK 30/10 Q1010 NOSIG
From batch tds/metars/production/2022/10/6/h05_m21_metars.cache.csv.gz
Observed at (about 6 hours ago)
Identifier HESN
HESN 060400Z 01005KT CAVOK 28/10 Q1010 NOSIG
From batch tds/metars/production/2022/10/6/h04_m54_metars.cache.csv.gz
Observed at (about 7 hours ago)
Identifier HESN
HESN 060300Z 36004KT CAVOK 28/10 Q1010 NOSIG
From batch tds/metars/production/2022/10/6/h03_m20_metars.cache.csv.gz
Observed at (about 8 hours ago)
Identifier HESN
HESN 060200Z 02005KT CAVOK 28/05 Q1010 NOSIG
From batch tds/metars/production/2022/10/6/h02_m26_metars.cache.csv.gz
Observed at (about 9 hours ago)
Identifier HESN
HESN 060100Z 01005KT CAVOK 29/10 Q1009 NOSIG
From batch tds/metars/production/2022/10/6/h01_m51_metars.cache.csv.gz
Observed at (about 10 hours ago)
Identifier HESN
HESN 052300Z 02006KT CAVOK 32/10 Q1009 NOSIG
From batch tds/metars/production/2022/10/5/h23_m20_metars.cache.csv.gz
Observed at (about 12 hours ago)
Identifier HESN
HESN 052200Z 01007KT CAVOK 32/10 Q1010 NOSIG
From batch tds/metars/production/2022/10/5/h22_m23_metars.cache.csv.gz
Observed at (about 13 hours ago)
Identifier HESN
HESN 052100Z 02008KT CAVOK 34/10 Q1010 NOSIG
From batch tds/metars/production/2022/10/5/h21_m27_metars.cache.csv.gz
Observed at (about 14 hours ago)
Identifier HESN
HESN 052000Z 02008KT CAVOK 35/07 Q1009 NOSIG
From batch tds/metars/production/2022/10/5/h20_m27_metars.cache.csv.gz
Observed at (about 15 hours ago)
Identifier HESN
HESN 051900Z 01008KT CAVOK 35/07 Q1009 NOSIG
From batch tds/metars/production/2022/10/5/h19_m23_metars.cache.csv.gz
Observed at (about 16 hours ago)
Identifier HESN
HESN 051700Z 02005KT CAVOK 38/09 Q1008 NOSIG
From batch tds/metars/production/2022/10/5/h17_m55_metars.cache.csv.gz
Observed at (about 18 hours ago)
Identifier HESN
HESN 051600Z 01004KT CAVOK 39/09 Q1007 NOSIG
From batch tds/metars/production/2022/10/5/h16_m21_metars.cache.csv.gz
Observed at (about 19 hours ago)
Identifier HESN
HESN 051500Z 00000KT CAVOK 40/09 Q1007 NOSIG
From batch tds/metars/production/2022/10/5/h15_m53_metars.cache.csv.gz
Observed at (about 20 hours ago)
Identifier HESN
HESN 051400Z 25004KT CAVOK 41/09 Q1007 NOSIG
From batch tds/metars/production/2022/10/5/h14_m27_metars.cache.csv.gz
Observed at (about 21 hours ago)
Identifier HESN
HESN 051300Z 21004KT CAVOK 41/09 Q1007 NOSIG
From batch tds/metars/production/2022/10/5/h13_m28_metars.cache.csv.gz
Observed at (about 22 hours ago)
Identifier HESN
HESN 051200Z 29003KT CAVOK 41/09 Q1008 NOSIG
From batch tds/metars/production/2022/10/5/h12_m29_metars.cache.csv.gz
Observed at (about 23 hours ago)
Identifier HESN
HESN 051100Z 36004KT XAVOK 40/08 Q1009 NOSIG
From batch tds/metars/production/2022/10/5/h11_m28_metars.cache.csv.gz
Observed at (1 day ago)
Identifier HESN
HESN 051000Z 36005KT CAVOK 38/10 Q1010 NOSIG
From batch tds/metars/production/2022/10/5/h10_m28_metars.cache.csv.gz
Observed at (1 day ago)
Identifier HESN
HESN 050900Z 01007KT CAVOK 36/10 Q1011 NOSIG
From batch tds/metars/production/2022/10/5/h09_m50_metars.cache.csv.gz
Observed at (1 day ago)
Identifier HESN
HESN 050800Z 02008KT CAVOK 33/10 Q1011 NOSIG
From batch tds/metars/production/2022/10/5/h08_m25_metars.cache.csv.gz
Observed at (1 day ago)
Identifier HESN
HESN 050700Z 01006KT CAVOK 31/08 Q1011 NOSIG
From batch tds/metars/production/2022/10/5/h07_m29_metars.cache.csv.gz
Observed at (1 day ago)
Identifier HESN
HESN 050600Z 02007KT CAVOK 29/08 Q1011 NOSIG
From batch tds/metars/production/2022/10/5/h06_m55_metars.cache.csv.gz
Observed at (1 day ago)
Identifier HESN
HESN 050500Z 36006KT CAVOK 28/07 Q1010 NOSIG
From batch tds/metars/production/2022/10/5/h05_m55_metars.cache.csv.gz
Observed at (1 day ago)
Identifier HESN
HESN 050400Z 01006KT CAVOK 26/07 Q1010 NOSIG
From batch tds/metars/production/2022/10/5/h04_m59_metars.cache.csv.gz
Observed at (1 day ago)
Identifier HESN
HESN 050300Z 01006KT CAVOK 27/07 Q1010 NOSIG
From batch tds/metars/production/2022/10/5/h03_m28_metars.cache.csv.gz
Observed at (1 day ago)
Identifier HESN
HESN 050200Z 02007KT CAVOK 27/09 Q1009 NOSIG
From batch tds/metars/production/2022/10/5/h02_m20_metars.cache.csv.gz
Observed at (1 day ago)
Identifier HESN
HESN 050100Z 01006KT CAVOK 28/09 Q1009 NOSIG
From batch tds/metars/production/2022/10/5/h01_m28_metars.cache.csv.gz
Observed at (1 day ago)
Identifier HESN
HESN 050000Z 36007KT CAVOK 29/09 Q1009 NOSIG
From batch tds/metars/production/2022/10/5/h00_m59_metars.cache.csv.gz
Observed at (1 day ago)
Identifier HESN
HESN 042200Z 02010KT CAVOK 30/10 Q1010 NOSIG
From batch tds/metars/production/2022/10/4/h22_m21_metars.cache.csv.gz
Observed at (1 day ago)
Identifier HESN
HESN 042100Z 03011KT CAVOK 31/10 Q1010 NOSIG
From batch tds/metars/production/2022/10/4/h21_m24_metars.cache.csv.gz
Observed at (1 day ago)
Identifier HESN
HESN 042000Z 02005KT CAVOK 32/07 Q1009 NOSIG
From batch tds/metars/production/2022/10/4/h20_m26_metars.cache.csv.gz
Observed at (1 day ago)
Identifier HESN
HESN 041900Z 02005KT CAVOK 33/07 Q1008 NOSIG
From batch tds/metars/production/2022/10/4/h19_m27_metars.cache.csv.gz
Observed at (1 day ago)
Identifier HESN
HESN 041800Z 01004KT CAVOK 34/07 Q1008 NOSIG
From batch tds/metars/production/2022/10/4/h18_m26_metars.cache.csv.gz
Observed at (1 day ago)
Identifier HESN
HESN 041700Z 02004KT CAVOK 37/06 Q1007 NOSIG
From batch tds/metars/production/2022/10/4/h17_m26_metars.cache.csv.gz
Observed at (2 days ago)
Identifier HESN
HESN 041600Z 01003KT CAVOK 38/06 Q1006 NOSIG
From batch tds/metars/production/2022/10/4/h16_m29_metars.cache.csv.gz
Observed at (2 days ago)
Identifier HESN
HESN 041500Z 00000KT CAVOK 38/06 Q1006 NOSIG
From batch tds/metars/production/2022/10/4/h15_m51_metars.cache.csv.gz
Observed at (2 days ago)
Identifier HESN
HESN 041400Z 02005KT CAVOK 39/08 Q1005 NOSIG
From batch tds/metars/production/2022/10/4/h14_m22_metars.cache.csv.gz
Observed at (2 days ago)
Identifier HESN
HESN 041300Z 01004KT CAVOK 40/08 Q1005 NOSIG
From batch tds/metars/production/2022/10/4/h13_m56_metars.cache.csv.gz
Observed at (2 days ago)
Identifier HESN
HESN 041200Z 36003KT CAVOK 40/08 Q1006 NOSIG
From batch tds/metars/production/2022/10/4/h12_m52_metars.cache.csv.gz
Observed at (2 days ago)
Identifier HESN
HESN 041100Z 01008KT CAVOK 39/12 Q1007
From batch tds/metars/production/2022/10/4/h11_m23_metars.cache.csv.gz
Observed at (2 days ago)
Identifier HESN
HESN 041000Z 01006KT CAVOK 38/13 Q1007 NOSIG
From batch tds/metars/production/2022/10/4/h10_m59_metars.cache.csv.gz
Observed at (2 days ago)
Identifier HESN
HESN 040900Z 02007KT CAVOK 36/13 Q1008 NOSIG
From batch tds/metars/production/2022/10/4/h09_m59_metars.cache.csv.gz
Observed at (2 days ago)
Identifier HESN
HESN 040800Z 22005KT CAVOK 35/13 Q1008 NOSIG
From batch tds/metars/production/2022/10/4/h08_m59_metars.cache.csv.gz
Observed at (2 days ago)
Identifier HESN
HESN 040600Z 01007KT CAVOK 30/13 Q1008 NOSIG
From batch tds/metars/production/2022/10/4/h06_m50_metars.cache.csv.gz
Observed at (2 days ago)
Identifier HESN
HESN 040500Z 36008KT CAVOK 29/13 Q1006 NOSIG
From batch tds/metars/production/2022/10/4/h05_m23_metars.cache.csv.gz
Observed at (2 days ago)
Identifier HESN
HESN 040400Z 01005KT CAVOK 27/13 Q1006 NOSIG
From batch tds/metars/production/2022/10/4/h04_m28_metars.cache.csv.gz
Observed at (2 days ago)
Identifier HESN
HESN 040300Z 36006KT CAVOK 27/13 Q1006 NOSIG
From batch tds/metars/production/2022/10/4/h03_m57_metars.cache.csv.gz
Observed at (2 days ago)
Identifier HESN
talk